Date,TemperatureHighF,TemperatureAvgF,TemperatureLowF,DewpointHighF,DewpointAvgF,DewpointLowF,HumidityHigh,HumidityAvg,HumidityLow,PressureMaxIn,PressureMinIn,WindSpeedMaxMPH,WindSpeedAvgMPH,GustSpeedMaxMPH,PrecipitationSumIn
2012-1-1,-200.0,0.0,200.0,-99.9,-99.9,-99.9,0,0,100,29.38,29.32,0,-999,0,0.00
2012-1-2,-200.0,0.0,200.0,-99.9,-99.9,-99.9,0,0,100,29.40,29.17,0,-999,0,0.00
2012-1-3,-200.0,0.0,200.0,-99.9,-99.9,-99.9,0,0,100,29.57,29.21,0,-999,0,0.00
2012-1-4,45.7,1.1,16.9,44.9,-96.1,-99.9,99,3,89,29.36,29.14,101,-970,101,1.51
2012-1-5,-200.0,0.0,200.0,-99.9,-99.9,-99.9,0,0,100,29.23,28.46,0,-999,0,0.00
2012-1-6,42.1,13.6,34.5,33.4,-51.3,-99.9,87,30,70,29.43,28.57,6,-628,12,0.00
2012-1-7,39.6,9.4,36.5,39.3,-65.4,-99.9,99,25,99,29.44,29.18,8,-746,13,0.00
2012-1-8,43.3,33.9,36.1,39.0,23.0,-99.9,99,88,82,29.44,29.22,9,-100,15,0.00
2012-1-9,37.2,4.0,35.4,37.0,-84.9,-99.9,99,11,99,29.63,29.43,4,-889,9,0.00
2012-1-10,38.5,4.3,32.9,38.2,-83.9,-99.9,99,11,92,29.85,29.53,100,-880,100,0.00
2012-1-11,44.4,8.7,36.1,41.6,-68.5,-99.9,99,22,84,29.84,29.75,97,-762,121,0.00
2012-1-12,45.0,15.0,37.2,41.5,-50.5,-99.9,99,32,87,29.79,29.30,13,-643,25,0.00
2012-1-13,31.8,0.2,31.8,31.6,-99.0,-99.9,99,1,99,29.40,29.33,4,-992,9,0.00
2012-1-14,33.4,6.2,32.2,33.0,-75.2,-99.9,99,18,85,29.46,29.37,10,-811,15,0.00
2012-1-15,31.5,28.5,25.2,24.5,22.9,21.0,84,79,72,29.64,29.57,7,3,14,0.00
2012-1-16,31.3,26.6,20.5,30.7,24.8,20.1,99,93,77,29.69,29.61,5,3,11,0.00
2012-1-17,33.8,32.5,30.9,33.5,32.3,30.7,99,99,99,29.74,29.59,9,4,13,0.00
2012-1-18,43.9,34.8,26.8,32.8,28.0,21.9,99,78,55,29.78,29.52,10,3,14,0.00
2012-1-19,40.5,35.6,31.5,40.2,34.9,26.3,99,97,70,29.53,29.15,8,4,18,0.00
2012-1-20,40.5,35.1,32.0,37.8,33.7,31.6,99,95,76,29.27,29.10,15,5,23,0.00
2012-1-21,36.0,33.2,31.1,35.7,32.2,30.5,99,96,84,29.32,28.86,9,4,14,0.00
2012-1-22,44.8,38.2,33.8,40.4,35.8,33.5,99,92,72,29.04,28.86,14,6,31,0.00
2012-1-23,43.9,37.4,33.3,41.6,36.4,33.0,99,96,84,29.29,28.97,15,4,24,0.00
2012-1-24,37.0,33.6,31.5,36.8,33.4,31.2,99,99,99,29.54,29.28,7,2,14,0.00
2012-1-25,38.8,30.7,28.0,32.9,29.0,24.3,99,94,79,29.62,29.54,5,1,9,0.00
2012-1-26,35.6,27.4,22.1,28.8,24.8,21.6,99,90,73,29.66,29.60,6,2,8,0.00
2012-1-27,32.5,25.2,19.0,26.6,23.3,18.8,99,93,75,29.74,29.65,4,2,8,0.00
2012-1-28,30.7,26.1,21.6,28.1,24.9,21.3,99,95,85,29.77,29.73,6,3,10,0.00
2012-1-29,34.0,28.2,23.0,26.9,24.3,19.7,95,86,72,29.80,29.74,9,4,15,0.00
2012-1-30,35.4,25.4,17.2,19.4,16.0,14.0,87,69,42,29.80,29.76,10,6,19,0.00
2012-1-31,30.2,20.9,15.1,15.7,12.9,9.1,87,72,47,29.78,29.70,14,6,24,0.00
2012-2-1,25.5,15.4,9.7,9.7,5.3,-1.0,90,66,37,29.81,29.74,14,6,25,0.00
2012-2-2,20.1,10.2,3.2,5.4,1.9,-1.4,92,71,38,29.88,29.79,9,3,13,0.00
2012-2-3,23.5,10.9,1.2,7.4,3.5,-2.0,89,73,47,29.93,29.85,4,1,7,0.00
2012-2-4,22.1,11.9,6.1,13.8,7.8,5.3,99,85,51,29.96,29.92,8,3,14,0.00
2012-2-5,21.4,11.0,4.1,14.0,6.6,-0.2,99,83,53,29.93,29.87,8,2,11,0.00
2012-2-6,19.8,6.0,-0.6,5.2,-13.8,-99.9,89,65,46,29.89,29.84,8,-145,14,0.00
2012-2-7,10.6,0.1,10.6,8.5,-98.4,-99.9,91,1,91,29.96,29.82,2,-985,4,0.00
2012-2-8,20.3,4.9,15.1,13.7,-67.6,-99.9,94,24,73,30.00,29.88,8,-712,11,0.00
2012-2-9,18.3,8.8,12.9,18.1,-35.2,-99.9,99,53,84,29.90,29.71,6,-429,9,0.00
2012-2-10,26.1,12.4,5.7,14.4,6.8,-99.9,97,83,55,30.01,29.90,4,-12,11,0.00
2012-2-11,14.2,2.1,0.3,8.6,-54.2,-99.9,99,42,78,29.96,29.82,5,-558,8,0.00
2012-2-12,32.4,8.6,7.3,24.7,-47.8,-99.9,85,35,70,29.84,29.65,3,-531,4,0.00
2012-2-13,22.3,13.3,6.4,19.9,10.0,-99.9,99,92,84,29.65,29.40,3,-16,4,0.00
2012-2-14,-200.0,0.0,200.0,-99.9,-99.9,-99.9,0,0,100,29.41,29.06,0,-999,0,0.00
2012-2-15,-200.0,0.0,200.0,-99.9,-99.9,-99.9,0,0,100,29.06,28.68,0,-999,0,0.00
2012-2-16,-200.0,0.0,200.0,-99.9,-99.9,-99.9,0,0,100,29.54,29.48,0,-999,0,0.00
2012-2-17,-200.0,0.0,200.0,-99.9,-99.9,-99.9,0,0,100,29.48,29.37,0,-999,0,0.00
2012-2-18,-200.0,0.0,200.0,-99.9,-99.9,-99.9,0,0,100,29.49,29.32,0,-999,0,0.00
2012-2-19,38.8,13.0,31.1,33.8,-49.1,-99.9,99,36,80,29.62,29.21,4,-613,8,0.00
2012-2-20,40.5,32.9,27.3,33.9,28.5,23.7,99,85,58,29.91,29.62,6,2,11,0.00
2012-2-21,42.6,32.5,24.4,31.9,26.9,22.8,98,81,54,29.90,29.76,7,2,13,0.00
2012-2-22,43.9,37.1,33.1,40.9,36.2,32.2,99,96,87,29.83,29.60,5,2,8,0.00
2012-2-23,42.3,38.6,32.4,41.8,36.9,30.3,99,94,70,29.60,29.42,11,4,18,0.00
2012-2-24,51.1,45.3,40.3,48.5,44.8,40.0,99,98,90,29.54,29.44,12,5,19,0.00
2012-2-25,49.3,43.0,38.3,46.3,37.5,34.1,99,82,58,29.53,29.37,13,6,22,0.00
2012-2-26,41.0,35.7,29.3,40.0,32.9,23.0,99,90,72,29.61,29.35,11,4,17,0.00
2012-2-27,43.3,33.7,24.4,35.0,26.4,20.9,99,75,50,29.67,29.54,6,2,11,0.00
2012-2-28,45.1,40.1,34.9,44.9,39.8,34.6,99,99,99,29.54,29.37,13,5,19,0.00
2012-2-29,50.5,47.8,45.1,50.3,47.5,44.9,99,99,99,29.62,29.40,11,3,18,0.04
2012-3-1,55.0,49.0,45.1,54.4,48.7,44.9,99,99,97,29.65,29.61,6,1,8,0.00
2012-3-2,50.5,44.0,37.2,47.0,42.7,37.0,99,95,83,29.73,29.62,6,2,14,0.00
2012-3-3,51.3,39.7,31.5,39.6,29.5,20.4,99,71,32,29.75,29.67,6,2,13,0.00
2012-3-4,45.7,37.0,31.8,30.3,27.2,22.9,85,68,51,29.67,29.51,7,3,11,0.00
2012-3-5,51.6,37.8,27.5,25.6,22.9,19.3,83,57,35,29.60,29.48,8,3,11,0.00
2012-3-6,45.9,34.2,26.2,30.3,24.7,19.7,99,70,45,29.78,29.59,6,2,11,0.00
2012-3-7,44.8,32.6,22.1,27.1,23.0,18.9,88,69,46,29.78,29.42,7,2,11,0.00
2012-3-8,38.7,33.5,28.6,38.4,32.4,25.8,99,96,77,29.82,29.38,7,2,12,0.04
2012-3-9,50.9,38.5,29.7,39.5,33.2,29.4,99,83,52,30.02,29.82,6,2,9,0.00
2012-3-10,50.9,41.6,30.9,43.8,35.6,28.2,99,80,60,29.96,29.73,8,2,14,0.00
2012-3-11,44.2,0.6,44.2,44.0,-97.9,-99.9,99,1,99,29.73,29.65,4,-985,8,0.00
2012-3-12,45.5,42.3,40.5,45.2,40.7,-99.9,99,98,99,29.71,29.60,9,-10,15,0.02
2012-3-13,45.5,43.3,41.2,44.5,42.6,40.9,99,97,89,29.77,29.71,7,3,11,0.01
2012-3-14,42.4,41.2,39.2,42.0,40.6,38.9,99,98,91,29.82,29.74,8,4,14,0.00
2012-3-15,49.8,41.0,36.0,41.9,39.1,35.7,99,93,70,29.84,29.72,4,2,8,0.00
2012-3-16,66.7,47.3,31.6,50.4,40.9,31.4,99,81,51,29.73,29.54,6,2,8,0.00
2012-3-17,74.1,55.5,40.3,44.6,40.5,35.1,99,62,28,29.55,29.38,4,2,8,0.00
2012-3-18,71.8,56.8,46.0,46.7,36.6,29.8,88,50,22,29.43,29.28,10,3,18,0.00
2012-3-19,53.6,44.6,37.6,44.9,36.3,28.0,99,75,48,29.88,29.43,8,3,14,0.00
2012-3-20,60.8,42.6,31.1,32.7,28.4,23.7,93,61,26,29.96,29.87,4,1,9,0.00
2012-3-21,67.1,50.6,37.9,48.7,35.9,-99.9,99,61,40,29.98,29.89,6,-13,9,0.00
2012-3-22,65.1,51.7,40.5,52.1,47.2,40.2,99,86,58,29.93,29.78,4,2,8,0.00
2012-3-23,68.4,53.8,42.1,52.5,46.3,41.8,99,78,49,29.78,29.65,5,2,8,0.00
2012-3-24,71.4,56.1,43.7,49.6,44.5,39.5,99,68,39,29.70,29.62,4,2,7,0.00
2012-3-25,65.8,54.6,45.1,45.8,38.8,25.6,99,61,22,29.79,29.67,10,3,16,0.00
2012-3-26,62.8,48.9,36.5,41.6,33.2,17.0,99,61,18,29.92,29.79,6,2,11,0.00
2012-3-27,65.3,50.1,35.8,45.5,36.4,28.2,84,61,40,29.86,29.70,8,4,14,0.00
2012-3-28,68.2,55.6,43.7,49.8,42.5,30.9,99,67,27,29.77,29.47,9,4,15,0.00
2012-3-29,53.1,47.3,41.5,43.2,38.0,32.8,99,72,46,29.47,29.21,14,7,27,0.00
2012-3-30,49.1,43.5,38.7,47.4,41.7,38.4,99,93,81,29.25,29.16,12,6,21,0.02
2012-3-31,46.2,41.8,32.0,45.1,37.8,-99.9,99,88,60,29.24,28.95,18,2,31,0.18
2012-4-1,49.3,39.7,32.4,33.8,27.4,20.0,99,66,33,29.38,29.21,11,4,17,0.00
2012-4-2,51.6,43.7,38.5,38.4,34.1,27.1,88,69,55,29.21,29.14,10,4,15,0.00
2012-4-3,63.5,49.5,38.7,43.1,40.6,38.2,99,75,45,29.17,29.03,8,3,13,0.00
2012-4-4,64.2,53.3,44.6,51.7,44.1,39.5,99,74,41,29.28,29.02,10,3,20,0.00
2012-4-5,48.7,42.7,38.3,44.6,41.8,38.0,99,97,84,29.37,29.28,8,3,13,0.01
2012-4-6,45.3,39.8,36.7,42.8,39.3,36.4,99,98,91,29.34,29.10,5,2,8,0.00
2012-4-7,46.0,38.2,32.4,41.7,35.4,25.9,99,91,51,29.10,28.97,11,3,18,0.00
2012-4-8,38.5,32.9,29.1,32.1,26.2,19.6,99,78,49,29.36,29.07,8,3,16,0.00
2012-4-9,55.8,39.8,25.0,34.7,24.7,19.4,84,58,28,29.35,29.11,8,3,14,0.00
2012-4-10,61.7,49.2,39.4,41.0,35.5,29.1,82,61,41,29.13,28.94,11,4,18,0.00
2012-4-11,65.8,52.1,40.6,50.3,33.6,27.0,99,52,30,28.95,28.86,6,3,11,0.00
2012-4-12,52.2,43.6,39.4,47.8,42.9,39.1,99,98,80,29.03,28.91,8,4,15,0.20
2012-4-13,59.5,46.7,36.1,47.1,40.5,35.9,99,82,46,29.07,29.01,5,2,9,0.00
2012-4-14,61.0,48.3,36.7,43.6,39.1,35.3,99,74,41,29.07,28.97,7,3,14,0.00
2012-4-15,47.8,45.1,42.4,47.0,43.6,39.1,99,95,74,29.06,28.97,10,5,20,0.24
2012-4-16,45.0,42.4,39.0,44.5,39.9,30.8,99,91,65,29.39,29.07,11,5,20,0.11
2012-4-17,56.3,43.5,32.0,35.7,29.4,22.2,98,61,28,29.39,29.13,5,2,11,0.00
2012-4-18,57.0,44.9,31.1,32.6,29.3,25.2,93,58,34,29.13,28.84,6,3,10,0.00
2012-4-19,61.9,49.3,39.2,45.8,38.5,29.5,99,67,48,28.85,28.74,9,3,15,0.00
2012-4-20,62.4,49.7,38.3,54.4,44.9,38.0,99,86,52,28.95,28.77,6,2,11,0.00
2012-4-21,64.9,52.2,42.6,48.5,42.1,32.8,99,73,31,29.06,28.96,8,2,11,0.00
2012-4-22,60.3,49.4,42.4,47.9,41.7,36.3,99,77,42,29.19,29.02,7,3,12,0.01
2012-4-23,63.7,50.6,38.3,43.8,38.2,30.7,99,68,30,29.20,29.02,9,3,14,0.00
2012-4-24,63.3,51.9,43.2,50.1,45.1,39.4,99,80,54,29.02,28.82,8,4,17,0.30
2012-4-25,65.3,52.5,43.0,48.3,42.0,36.1,99,72,35,29.16,28.92,11,4,18,0.02
2012-4-26,77.4,61.3,44.8,50.2,44.9,38.3,83,58,32,29.33,29.15,10,4,14,0.00
2012-4-27,86.9,67.9,52.3,54.3,50.4,46.2,85,57,29,29.48,29.34,7,3,11,0.00
2012-4-28,85.3,71.3,58.5,52.1,49.8,47.8,73,49,29,29.50,29.34,12,4,18,0.00
2012-4-29,88.2,72.7,60.1,53.4,46.7,30.4,68,44,13,29.34,29.17,14,4,21,0.00
2012-4-30,82.4,70.6,59.9,61.4,55.9,47.2,79,61,47,29.39,29.23,8,4,13,0.00
2012-5-1,89.2,74.0,60.3,58.1,50.4,43.0,79,48,21,29.38,29.32,11,3,17,0.00
2012-5-2,87.4,72.3,59.7,58.2,52.4,49.2,72,51,27,29.36,29.21,8,3,14,0.00
2012-5-3,76.6,66.0,56.7,63.4,57.4,50.5,99,75,55,29.24,29.16,6,2,12,0.15
2012-5-4,77.7,64.5,53.1,60.1,52.1,45.0,99,69,32,29.18,29.04,6,1,10,0.01
2012-5-5,75.9,60.4,50.2,59.4,54.3,49.0,99,83,47,29.09,29.01,6,2,12,0.15
2012-5-6,60.3,53.0,46.4,55.5,51.4,46.1,99,94,77,29.31,29.09,8,3,13,0.12
2012-5-7,66.2,52.7,43.3,56.6,48.7,43.1,99,88,61,29.49,29.31,4,1,7,0.00
2012-5-8,72.9,58.0,45.0,57.2,50.6,44.7,99,79,49,29.50,29.39,6,2,10,0.00
2012-5-9,81.1,64.7,48.9,57.3,52.3,48.5,99,67,38,29.51,29.41,6,2,9,0.00
2012-5-10,85.5,70.8,56.8,63.0,58.4,54.2,99,68,41,29.62,29.51,5,1,11,0.00
2012-5-11,90.1,73.5,59.5,68.6,62.0,57.5,99,70,42,29.62,29.47,7,2,10,0.00
2012-5-12,71.8,55.0,43.9,65.7,49.7,38.4,99,84,52,29.81,29.50,8,4,17,0.19
2012-5-13,51.8,45.5,37.8,40.9,37.2,33.5,99,74,51,29.82,29.68,7,2,12,0.00
2012-5-14,63.0,50.8,40.6,47.6,42.0,39.3,99,74,49,29.68,29.41,4,1,7,0.00
2012-5-15,66.9,55.1,47.3,49.5,41.3,32.4,99,65,30,29.40,29.12,8,2,15,0.00
2012-5-16,55.0,48.8,42.8,48.7,42.9,36.6,99,82,57,29.50,29.19,9,3,17,0.04
2012-5-17,57.7,46.8,36.0,43.2,33.8,26.8,99,66,33,29.58,29.50,8,3,14,0.00
2012-5-18,64.8,51.3,35.4,37.9,34.1,30.0,95,55,33,29.50,29.35,8,2,16,0.00
2012-5-19,77.7,62.0,45.1,45.2,40.7,34.2,70,48,29,29.42,29.31,5,2,10,0.00
2012-5-20,81.0,67.4,52.2,53.0,48.2,44.4,78,53,30,29.33,29.12,11,4,16,0.00
2012-5-21,81.1,70.7,58.8,57.2,53.0,49.2,78,55,35,29.11,29.03,11,4,22,0.00
2012-5-22,87.3,70.8,62.2,66.1,59.6,55.0,99,70,39,29.26,29.07,5,2,10,0.00
2012-5-23,86.7,74.0,61.7,65.9,57.0,45.7,99,61,27,29.55,29.26,13,4,21,0.00
2012-5-24,76.8,69.9,60.6,67.0,54.5,41.0,99,62,30,29.66,29.55,14,5,21,0.00
2012-5-25,74.5,63.8,51.8,46.2,42.3,39.0,68,47,30,29.67,29.58,10,4,17,0.00
2012-5-26,75.9,64.4,50.7,47.4,40.7,-99.9,72,46,26,29.61,29.52,194,5,194,0.00
2012-5-27,79.0,64.8,53.4,49.2,44.6,37.7,71,50,24,29.54,29.41,7,2,11,0.00
2012-5-28,75.6,64.2,55.8,59.3,51.7,45.8,99,66,40,29.41,29.26,7,1,14,0.00
2012-5-29,80.6,66.2,51.4,61.6,52.1,41.2,99,66,28,29.32,29.22,10,2,14,0.00
2012-5-30,75.7,64.7,52.0,51.4,47.7,43.2,83,56,37,29.47,29.32,11,2,17,0.00
2012-5-31,75.2,62.6,49.3,60.9,53.3,47.6,99,74,45,29.48,29.24,5,1,11,0.02
2012-6-1,60.3,55.3,47.8,59.6,54.2,47.6,99,96,81,29.37,29.17,10,4,18,0.58
2012-6-2,66.2,54.6,45.3,51.2,45.9,43.1,99,76,45,29.39,29.31,8,2,14,0.00
2012-6-3,68.0,58.0,46.8,62.2,51.0,40.9,99,78,53,29.34,29.03,5,2,11,0.14
2012-6-4,67.8,59.3,54.5,63.2,57.6,54.2,99,94,78,29.24,29.13,5,2,8,0.01
2012-6-5,55.8,51.5,47.3,55.5,49.2,39.4,99,92,74,29.46,29.16,10,3,18,0.07
2012-6-6,66.6,54.9,41.9,58.2,46.8,36.1,99,75,52,29.44,29.20,8,2,11,0.01
2012-6-7,81.0,67.4,52.7,62.1,56.7,52.4,99,72,43,29.26,29.08,4,1,8,0.00
2012-6-8,82.0,68.6,60.6,67.2,62.3,55.4,99,83,49,29.30,29.09,6,2,11,0.00
2012-6-9,78.8,65.4,57.0,64.4,57.6,52.0,99,79,44,29.38,29.31,6,2,11,0.00
2012-6-10,64.4,57.2,51.4,63.9,56.9,51.2,99,99,96,29.34,29.17,5,2,8,0.37
2012-6-11,73.4,60.0,51.6,62.5,56.0,51.3,99,88,54,29.17,29.04,12,2,17,0.25
2012-6-12,77.0,60.8,52.9,67.9,57.5,52.6,99,91,54,29.05,28.97,10,2,14,0.14
2012-6-13,68.4,60.7,53.1,63.4,58.4,52.8,99,92,73,29.36,29.01,7,2,13,0.27
2012-6-14,62.8,57.1,52.3,58.4,55.8,52.1,99,96,82,29.53,29.36,5,2,13,0.02
2012-6-15,79.2,63.8,48.0,60.0,55.7,47.8,99,77,48,29.56,29.46,7,2,11,0.00
2012-6-16,89.4,73.3,57.6,70.1,62.6,57.3,99,72,46,29.49,29.35,8,3,11,0.00
2012-6-17,86.0,72.2,57.9,66.4,58.7,54.8,99,66,37,29.60,29.40,7,3,17,0.00
2012-6-18,91.8,76.6,59.0,70.0,63.8,55.3,99,68,36,29.57,29.33,11,3,17,0.00
2012-6-19,80.6,70.4,62.8,67.9,61.9,54.9,99,75,60,29.57,29.41,7,2,11,0.00
2012-6-20,87.8,71.4,62.4,73.8,66.7,62.1,99,87,49,29.41,29.25,7,2,13,0.07
2012-6-21,69.4,64.3,62.6,69.1,64.1,62.3,99,99,99,29.30,29.24,4,2,9,0.53
2012-9-16,56.7,56.2,55.4,55.7,54.5,53.5,98,94,89,29.42,29.41,2,1,4,0.00
2012-9-17,72.3,59.4,49.1,59.4,53.5,48.8,99,83,54,29.41,29.37,4,1,7,0.00
2012-9-18,79.7,63.7,50.9,65.6,57.0,50.6,99,81,48,29.51,29.21,6,2,11,0.00
2012-9-19,63.7,54.7,46.9,59.9,50.7,44.3,99,87,62,29.51,29.18,14,2,25,0.00
2012-9-20,65.7,50.9,41.2,52.8,43.9,39.4,99,79,45,29.63,29.51,5,1,8,0.00
2012-9-21,63.5,50.9,40.3,52.8,44.7,40.0,99,82,49,29.63,29.35,7,2,11,0.00
2012-9-22,68.4,52.4,45.5,63.2,48.8,43.3,99,89,57,29.49,29.23,8,2,14,0.00
2012-9-23,62.6,50.6,41.4,51.9,45.5,41.1,99,84,55,29.53,29.28,4,2,8,0.00
2012-9-24,69.3,56.4,45.5,61.7,53.6,45.2,99,92,66,29.28,28.97,5,2,11,0.00
2012-9-25,76.3,61.7,50.9,57.3,53.4,49.4,99,78,40,29.15,29.05,8,2,11,0.00
2012-9-26,72.9,59.9,52.7,62.7,57.3,52.4,99,92,66,29.09,29.02,5,2,10,0.00
2012-9-27,67.3,59.0,53.8,61.4,55.2,50.9,99,88,62,29.34,28.93,9,3,15,0.00
2012-9-28,68.4,57.4,51.3,59.2,51.9,47.2,99,83,54,29.51,29.34,8,1,14,0.00
2012-9-29,69.4,54.7,45.7,59.4,51.7,45.4,99,91,55,29.49,29.37,4,1,5,0.00
2012-9-30,70.7,56.0,46.0,56.9,48.4,44.3,99,79,41,29.62,29.46,5,1,10,0.00
2012-10-1,63.3,52.2,45.3,55.5,50.3,45.1,99,94,66,29.55,29.42,6,1,8,0.00
2012-10-2,70.5,55.7,49.1,63.8,52.3,48.8,99,90,54,29.49,29.43,5,1,8,0.00
2012-10-3,72.0,56.8,41.7,57.5,50.1,41.5,99,81,47,29.45,29.37,4,1,11,0.00
2012-10-4,67.6,57.5,46.8,58.7,53.7,46.5,99,89,57,29.43,29.13,10,4,21,0.00
2012-10-5,63.0,52.8,41.7,59.6,50.4,41.5,99,92,73,29.49,29.28,8,2,16,0.00
2012-10-6,74.3,63.1,50.9,61.7,56.0,49.6,99,80,53,29.35,29.21,13,4,22,0.00
2012-10-7,54.9,48.2,45.3,53.0,46.9,43.4,99,95,77,29.51,29.27,8,2,15,0.00
2012-10-8,57.0,47.6,41.2,49.4,43.4,38.2,99,87,60,29.55,29.35,7,2,13,0.00
2012-10-9,60.4,46.2,36.0,49.5,41.4,35.7,99,85,53,29.35,29.19,5,2,13,0.00
2012-10-10,57.2,45.1,37.8,47.6,40.7,37.5,99,86,59,29.36,29.31,4,1,8,0.00
2012-10-11,59.0,45.3,36.9,47.9,40.5,36.6,99,85,52,29.40,29.32,4,1,6,0.00
2012-10-12,52.7,44.1,36.1,52.4,43.8,35.9,99,99,94,29.33,29.23,6,2,11,0.00
2012-10-13,61.3,49.7,40.6,54.2,45.7,40.4,99,88,56,29.41,29.17,4,1,8,0.00
2012-10-14,58.8,47.7,41.2,50.6,45.9,40.9,99,94,68,29.18,28.97,4,2,11,0.00
2012-10-15,55.2,48.0,44.1,54.9,47.8,43.8,99,99,99,29.30,28.95,5,1,13,0.00
2012-10-16,53.2,45.5,42.1,49.9,44.6,41.8,99,97,74,29.32,29.22,3,0,6,0.00
2012-10-17,63.3,49.4,37.6,53.1,46.0,37.3,99,90,62,29.47,29.31,5,1,11,0.00
2012-10-18,64.6,52.0,43.9,60.5,50.6,43.6,99,96,70,29.50,29.44,7,3,14,0.00
2012-10-19,63.5,51.9,46.8,61.2,51.4,46.5,99,98,77,29.52,29.46,5,1,8,0.00
2012-10-20,49.1,46.5,42.3,48.8,46.2,42.0,99,99,99,29.55,29.48,2,0,4,0.00
2012-10-21,47.5,45.7,44.2,47.2,41.9,38.3,99,87,79,29.57,29.50,2,0,5,0.00
2012-10-22,51.8,48.3,44.4,51.2,45.9,42.5,99,91,85,29.66,29.55,3,1,8,0.00
2012-10-23,49.8,47.9,46.8,49.5,47.7,46.5,99,99,99,29.69,29.63,5,2,8,0.00
2012-10-24,46.8,16.9,45.9,46.5,-46.7,-99.9,99,36,99,29.63,29.45,2,-635,3,0.00
2012-10-25,50.2,1.0,50.0,49.9,-96.8,-99.9,99,2,99,29.45,29.20,3,-978,4,0.00
2012-10-26,45.0,35.9,33.4,44.7,24.3,-99.9,99,84,69,29.31,28.99,8,-94,13,0.00
2012-10-27,35.4,32.4,30.2,35.2,32.1,30.0,99,99,99,29.05,28.72,9,2,15,0.00
2012-10-28,42.6,33.4,29.8,40.4,32.3,29.6,99,96,72,29.39,29.05,6,1,11,0.00
2012-10-29,36.7,31.9,27.5,36.4,31.7,27.3,99,99,99,29.39,29.26,4,2,9,0.00
2012-10-30,38.5,33.8,26.2,38.2,33.6,26.0,99,99,99,29.24,29.06,5,2,10,0.00
2012-10-31,54.9,41.7,35.8,51.7,40.1,35.5,99,95,72,29.16,28.94,8,2,18,0.00
2012-11-1,43.3,41.2,39.6,43.1,40.9,39.3,99,99,98,28.95,28.70,8,3,16,0.00
2012-11-2,54.3,43.6,37.8,46.9,41.2,37.5,99,92,63,29.11,28.82,8,3,15,0.00
2012-11-3,52.9,46.8,39.7,51.0,46.0,39.5,99,97,79,29.15,29.03,8,4,12,0.00
2012-11-4,52.2,46.2,42.8,51.9,45.9,42.5,99,99,99,29.18,28.92,8,2,13,0.00
2012-11-5,51.8,45.1,40.3,51.5,44.9,40.0,99,99,98,29.12,28.91,6,2,14,0.00
2012-11-6,47.8,39.8,35.2,46.0,39.4,35.0,99,98,82,29.44,29.12,9,3,16,0.00
2012-11-7,46.6,42.7,36.3,46.3,42.4,36.1,99,99,99,29.60,29.37,10,5,19,0.00
2012-11-8,48.6,44.7,41.5,48.0,44.1,41.3,99,98,87,29.59,29.41,8,3,14,0.00
2012-11-9,55.6,43.8,37.6,50.2,42.9,37.3,99,97,70,29.50,29.39,6,2,10,0.00
2012-11-10,48.4,41.5,36.9,48.1,41.3,36.6,99,99,99,29.39,29.15,7,4,14,0.00
2012-11-11,46.4,43.8,41.2,46.1,43.5,40.9,99,99,99,29.45,29.16,5,2,9,0.00
2012-11-12,48.6,45.1,42.6,48.3,44.9,42.4,99,99,99,29.75,29.45,4,1,7,0.00
2012-11-13,55.0,44.5,35.2,46.9,39.7,35.0,99,85,58,29.91,29.75,4,1,8,0.00
2012-11-14,50.0,37.8,29.8,42.6,35.5,29.6,99,93,64,29.90,29.76,5,2,8,0.00
2012-11-15,34.5,30.6,25.0,34.3,30.3,24.7,99,99,99,29.77,29.58,5,1,8,0.00
2012-11-16,40.8,38.1,34.5,40.6,37.8,34.3,99,99,99,29.58,29.48,8,2,10,0.00
2012-11-17,42.6,33.8,38.5,42.4,16.1,-99.9,99,82,99,29.48,29.33,6,-165,9,0.00
2012-11-18,-200.0,0.0,200.0,-99.9,-99.9,-99.9,0,0,100,29.43,29.32,0,-999,0,0.00
2012-11-19,-200.0,0.0,200.0,-99.9,-99.9,-99.9,0,0,100,29.54,29.43,0,-999,0,0.00
2012-11-20,-200.0,0.0,200.0,-99.9,-99.9,-99.9,0,0,100,29.56,29.51,0,-999,0,0.00
2012-11-21,-200.0,0.0,200.0,-99.9,-99.9,-99.9,0,0,100,29.55,29.46,0,-999,0,0.00
2012-11-22,-200.0,0.0,200.0,-99.9,-99.9,-99.9,0,0,100,29.66,29.52,0,-999,0,0.00
2012-11-23,-200.0,0.0,200.0,-99.9,-99.9,-99.9,0,0,100,29.62,29.54,0,-999,0,0.00
2012-11-24,-200.0,0.0,200.0,-99.9,-99.9,-99.9,0,0,100,29.57,29.49,0,-999,0,0.00
2012-11-25,-200.0,0.0,200.0,-99.9,-99.9,-99.9,0,0,100,29.50,29.36,0,-999,0,0.00
2012-11-26,-200.0,0.0,200.0,-99.9,-99.9,-99.9,0,0,100,29.41,29.16,0,-999,0,0.00
2012-11-27,-200.0,0.0,200.0,-99.9,-99.9,-99.9,0,0,100,29.17,29.07,0,-999,0,0.00
2012-11-28,-200.0,0.0,200.0,-99.9,-99.9,-99.9,0,0,100,29.07,28.77,0,-999,0,0.00
2012-11-29,-200.0,0.0,200.0,-99.9,-99.9,-99.9,0,0,100,28.87,28.55,0,-999,0,0.00
2012-11-30,-200.0,0.0,200.0,-99.9,-99.9,-99.9,0,0,100,29.25,28.87,0,-999,0,0.00
2012-12-1,-200.0,0.0,200.0,-99.9,-99.9,-99.9,0,0,100,29.34,29.25,0,-999,0,0.00
2012-12-2,48.6,13.8,29.1,30.7,-41.5,-99.9,99,44,43,29.93,29.21,4,-548,8,0.00
2012-12-3,34.7,29.7,25.9,34.3,29.1,25.6,99,97,86,30.05,29.83,5,2,12,0.00
2012-12-4,34.7,30.6,27.5,34.4,30.3,27.3,99,99,99,29.82,29.55,8,2,13,0.00
2012-12-5,34.5,31.3,25.7,34.3,29.7,24.4,99,94,80,29.79,29.55,6,2,10,0.00
2012-12-6,32.2,27.3,23.2,31.8,26.0,19.5,99,95,74,30.08,29.75,14,5,21,0.00
2012-12-7,31.5,20.5,14.5,29.9,19.8,14.3,99,97,80,30.07,29.92,7,3,11,0.00
2012-12-8,30.2,19.2,12.6,24.6,17.2,12.3,99,93,67,30.29,30.01,6,1,9,0.00
2012-12-9,30.2,21.8,14.9,26.5,20.4,14.7,99,94,69,30.29,29.83,7,2,11,0.00
2012-12-10,35.1,30.7,26.1,34.8,30.5,25.8,99,99,99,29.87,29.72,6,2,9,0.00
2012-12-11,30.7,25.6,22.8,30.5,25.4,22.6,99,99,99,30.22,29.88,8,4,14,0.00
2012-12-12,28.2,20.6,15.3,23.1,19.2,15.0,99,95,71,30.28,30.19,6,2,10,0.00
2012-12-13,33.3,22.1,19.0,33.0,21.8,18.8,99,99,96,30.19,30.08,7,2,11,0.00
2012-12-14,30.7,23.8,19.0,30.5,23.5,18.8,99,99,89,30.09,29.85,6,3,12,0.00
2012-12-15,32.9,31.3,28.9,32.7,31.1,28.7,99,99,99,29.92,29.81,5,1,10,1.57
2012-12-16,41.4,30.7,31.8,41.1,15.8,-99.9,99,84,99,29.92,29.89,4,-145,8,0.17
2012-12-17,37.6,35.7,34.0,37.3,35.4,33.7,99,99,99,29.92,29.87,4,1,6,0.00
2012-12-18,37.2,35.3,34.0,37.0,35.0,33.7,99,99,99,30.16,29.91,3,0,4,0.01
2012-12-19,39.0,36.3,34.7,38.8,36.0,34.4,99,99,99,30.37,30.17,2,0,4,0.00
2012-12-20,37.2,31.7,26.1,37.0,31.4,25.6,99,99,99,30.36,30.09,4,1,9,0.00
2012-12-21,30.2,27.6,23.4,30.0,27.4,23.1,99,99,99,30.16,30.04,0,0,0,0.00
2012-12-22,30.7,29.7,29.1,30.5,29.5,28.9,99,99,99,30.25,30.08,0,0,0,0.00
2012-12-23,32.0,22.0,29.3,31.8,-6.3,-99.9,99,71,99,30.07,29.91,4,-281,9,0.02
2012-12-24,41.9,14.4,35.2,41.6,-47.7,-99.9,99,38,99,30.01,29.88,6,-619,9,0.25
2012-12-25,36.0,1.0,35.2,35.7,-96.1,-99.9,99,3,99,29.91,29.79,4,-971,6,0.00
2012-12-26,41.9,7.4,40.1,41.6,-74.3,-99.9,99,18,99,30.03,29.90,6,-817,13,0.00
2012-12-27,50.7,40.2,40.5,44.9,31.1,-99.9,99,87,78,30.01,29.79,10,-73,18,0.00
2012-12-28,42.1,33.9,26.8,41.8,29.2,-99.9,99,92,71,30.55,29.88,100,-20,100,0.00
2012-12-29,37.0,30.8,26.8,36.8,30.5,26.5,99,99,99,30.52,30.19,8,4,13,0.00
2012-12-30,31.3,28.5,26.6,31.0,28.3,26.4,99,99,99,30.24,30.19,5,2,10,0.00
2013-1-1,37.8,33.5,32.4,37.5,33.3,32.1,99,99,99,29.99,29.91,4,2,9,0.00